Terminal Aerodrome Forecast
Issued by NWS Wichita, KS

Home | Current Version | Previous Version | Graphics & Text | Print | Product List | Glossary On
Versions: 1 2 3 4 5 6 7 8 9 10 11 12 13 14 15 16 17 18 19 20
000
FTUS43 KICT 040521
TAFICT
TAF
KICT 040521Z 0406/0506 02015G22KT P6SM OVC035
     FM040900 02017G25KT 3SM -SN OVC022
      TEMPO 0411/0415 1SM -SN OVC012
     FM041900 02013KT P6SM SCT020 BKN100
     FM050000 01007KT P6SM SCT120=

USA.gov is the U.S. government's official web portal to all federal, state and local government web resources and services.